Time;durP1;ratioP1;P1;durP2;ratioP2;P2;SDS_P1;SDS_P2;PMS_P1;PMS_P2;Temp;Humidity;BMP_temperature;BMP_pressure;BME280_temperature;BME280_humidity;BME280_pressure;Samples;Min_cycle;Max_cycle;Signal;HPM_P1;HPM_P2
2022/08/10 00:01:14;;;;;;;1.30;0.52;;;25.00;32.40;;;;;;2280006;55;21739;-73
2022/08/10 00:03:41;;;;;;;1.35;0.65;;;25.00;32.40;;;;;;2314556;55;21037;-72
2022/08/10 00:06:10;;;;;;;1.80;0.70;;;24.90;32.40;;;;;;2287781;55;21065;-72
2022/08/10 00:08:39;;;;;;;1.08;0.60;;;24.90;32.40;;;;;;2389622;55;21012;-72
2022/08/10 00:11:05;;;;;;;1.23;0.60;;;24.80;32.40;;;;;;2289374;55;21562;-71
2022/08/10 00:13:32;;;;;;;1.27;0.60;;;24.80;32.50;;;;;;2290296;55;20986;-73
2022/08/10 00:15:58;;;;;;;2.00;0.70;;;24.70;32.40;;;;;;2288645;55;21949;-72
2022/08/10 00:18:25;;;;;;;1.20;0.50;;;24.70;32.50;;;;;;2325592;55;21099;-74
2022/08/10 00:20:54;;;;;;;2.37;0.90;;;24.60;32.50;;;;;;2293708;55;21080;-72
2022/08/10 00:23:21;;;;;;;0.93;0.50;;;24.60;32.60;;;;;;2298523;54;21027;-73
2022/08/10 00:25:47;;;;;;;2.05;0.65;;;24.60;32.60;;;;;;2278864;55;21012;-71
2022/08/10 00:28:14;;;;;;;1.12;0.50;;;24.60;32.80;;;;;;2335023;55;21023;-73
2022/08/10 00:30:40;;;;;;;1.60;0.62;;;24.50;32.80;;;;;;2284928;55;21122;-72
2022/08/10 00:33:07;;;;;;;1.70;0.50;;;24.50;32.90;;;;;;2305603;55;21076;-72
2022/08/10 00:35:37;;;;;;;1.30;0.52;;;24.40;32.90;;;;;;2359312;55;20996;-71
2022/08/10 00:38:03;;;;;;;1.30;0.60;;;24.40;33.00;;;;;;2361607;55;21888;-72
2022/08/10 00:40:30;;;;;;;1.33;0.60;;;24.40;33.00;;;;;;2361975;55;21062;-74
2022/08/10 00:42:56;;;;;;;1.65;0.62;;;24.40;33.10;;;;;;2305636;55;21040;-72
2022/08/10 00:45:25;;;;;;;1.80;0.50;;;24.30;33.10;;;;;;2280435;55;21068;-72
2022/08/10 00:47:52;;;;;;;3.85;0.50;;;24.30;33.20;;;;;;2289009;55;20986;-72
2022/08/10 00:50:19;;;;;;;0.95;0.50;;;24.20;33.20;;;;;;2287408;55;21026;-74
2022/08/10 00:52:46;;;;;;;1.75;0.70;;;24.20;33.30;;;;;;2291356;55;20937;-73
2022/08/10 00:55:12;;;;;;;1.30;0.57;;;24.10;33.40;;;;;;2271592;55;21108;-72
2022/08/10 00:57:39;;;;;;;1.17;0.60;;;24.10;33.40;;;;;;2289812;55;21004;-73
2022/08/10 01:00:08;;;;;;;1.35;0.50;;;24.10;33.50;;;;;;2288871;55;21017;-72
2022/08/10 01:02:34;;;;;;;1.40;0.50;;;24.10;33.70;;;;;;2271365;55;21038;-71
2022/08/10 01:05:06;;;;;;;1.70;0.60;;;24.00;33.60;;;;;;2308728;54;21022;-71
2022/08/10 01:07:44;;;;;;;1.45;0.45;;;24.00;33.80;;;;;;2379054;55;20965;-73
2022/08/10 01:10:28;;;;;;;0.80;0.47;;;23.90;33.80;;;;;;2288918;55;20965;-72
2022/08/10 01:13:26;;;;;;;1.30;0.50;;;23.90;34.00;;;;;;2517069;55;20964;-72
2022/08/10 01:16:17;;;;;;;2.40;0.50;;;23.90;34.20;;;;;;2295730;55;20986;-72
2022/08/10 01:18:57;;;;;;;0.90;0.50;;;23.90;34.20;;;;;;2392613;55;20997;-74
2022/08/10 01:28:33;;;;;;;1.45;0.70;;;23.80;34.00;;;;;;2296404;55;20992;-72
2022/08/10 01:31:01;;;;;;;1.02;0.50;;;23.70;33.90;;;;;;2400323;55;21062;-71
2022/08/10 01:33:40;;;;;;;1.62;0.52;;;23.70;33.80;;;;;;2285848;55;21011;-72
2022/08/10 01:36:17;;;;;;;0.98;0.50;;;23.60;34.30;;;;;;2295317;55;21051;-72
2022/08/10 01:38:45;;;;;;;1.33;0.60;;;23.50;34.30;;;;;;2293217;55;20982;-71
2022/08/10 01:41:20;;;;;;;1.92;0.77;;;23.40;34.30;;;;;;2296247;55;20934;-70
2022/08/10 01:50:39;;;;;;;3.10;0.77;;;23.40;34.60;;;;;;2293043;55;22027;-71
2022/08/10 01:53:08;;;;;;;1.50;0.60;;;23.40;34.90;;;;;;2520668;55;20921;-72
2022/08/10 01:55:35;;;;;;;2.10;0.88;;;23.20;34.50;;;;;;2291401;55;21080;-71
2022/08/10 01:58:03;;;;;;;1.50;0.70;;;23.20;34.90;;;;;;2280359;55;20942;-73
2022/08/10 02:00:31;;;;;;;2.22;0.88;;;23.10;35.10;;;;;;2293531;54;21084;-72
2022/08/10 02:02:58;;;;;;;3.35;0.90;;;23.10;35.30;;;;;;2458617;55;21086;-71
2022/08/10 02:05:25;;;;;;;2.72;1.08;;;23.00;35.30;;;;;;2278742;55;21014;-73
2022/08/10 02:07:51;;;;;;;2.10;0.88;;;23.00;35.40;;;;;;2287377;55;20989;-72
2022/08/10 02:10:18;;;;;;;2.08;0.90;;;23.00;35.50;;;;;;2287432;55;20973;-71
2022/08/10 02:12:45;;;;;;;2.12;0.73;;;23.00;35.40;;;;;;2289575;55;20949;-71
2022/08/10 02:15:18;;;;;;;1.90;0.88;;;22.90;35.30;;;;;;2298844;55;21030;-72
2022/08/10 02:17:47;;;;;;;2.20;1.02;;;22.90;35.50;;;;;;2277655;55;21029;-71
2022/08/10 02:20:17;;;;;;;2.05;0.80;;;22.80;36.20;;;;;;2293330;55;21845;-71
2022/08/10 02:22:44;;;;;;;2.22;0.95;;;22.80;35.70;;;;;;2283839;55;21024;-72
2022/08/10 02:25:12;;;;;;;3.55;1.10;;;22.70;35.70;;;;;;2363369;55;21580;-73
2022/08/10 02:27:38;;;;;;;2.55;1.02;;;22.70;36.00;;;;;;2292644;55;21002;-71
2022/08/10 02:30:06;;;;;;;2.20;0.82;;;22.70;36.20;;;;;;2274692;55;20957;-73
2022/08/10 02:32:32;;;;;;;2.22;0.90;;;22.60;36.00;;;;;;2292054;55;21519;-73
2022/08/10 02:35:00;;;;;;;1.92;0.82;;;22.60;36.10;;;;;;2371117;55;21023;-73
2022/08/10 02:37:26;;;;;;;3.35;0.82;;;22.50;36.00;;;;;;2308972;55;21075;-71
2022/08/10 02:39:52;;;;;;;2.53;0.82;;;22.40;36.00;;;;;;2294673;55;21495;-71
2022/08/10 02:42:23;;;;;;;2.83;1.00;;;22.40;36.10;;;;;;2291326;55;20972;-71
2022/08/10 02:44:55;;;;;;;2.50;1.10;;;22.30;36.50;;;;;;2289486;55;21017;-72
2022/08/10 02:47:39;;;;;;;1.90;0.80;;;22.30;36.40;;;;;;2287826;55;20933;-72
2022/08/10 02:53:54;;;;;;;1.70;0.70;;;22.20;36.70;;;;;;2291964;55;21104;-73
2022/08/10 02:57:13;;;;;;;1.52;0.70;;;22.10;36.40;;;;;;2287069;55;21040;-71
2022/08/10 02:59:44;;;;;;;3.83;0.90;;;22.10;36.30;;;;;;2293132;55;20991;-72
2022/08/10 03:02:15;;;;;;;1.60;0.80;;;22.00;36.30;;;;;;2280437;55;21720;-71
2022/08/10 03:04:44;;;;;;;2.60;1.15;;;21.90;36.40;;;;;;2270019;55;21222;-72
2022/08/10 03:07:12;;;;;;;1.85;0.88;;;21.80;36.40;;;;;;2288350;55;21016;-70
2022/08/10 03:09:39;;;;;;;2.00;0.90;;;21.80;36.50;;;;;;2293755;55;20963;-71
2022/08/10 03:12:07;;;;;;;1.58;0.73;;;21.70;36.60;;;;;;2286590;55;21548;-71
2022/08/10 03:14:34;;;;;;;2.17;0.90;;;21.60;36.60;;;;;;2295134;55;20989;-70
2022/08/10 03:17:01;;;;;;;2.10;0.85;;;21.50;36.70;;;;;;2290263;55;21750;-73
2022/08/10 03:19:28;;;;;;;2.17;0.98;;;21.50;36.80;;;;;;2294178;55;20993;-71
2022/08/10 03:21:54;;;;;;;2.20;1.02;;;21.50;36.90;;;;;;2286541;55;21105;-70
2022/08/10 03:24:21;;;;;;;2.40;1.00;;;21.40;37.00;;;;;;2288784;55;21803;-71
2022/08/10 03:26:51;;;;;;;2.28;1.00;;;21.40;37.40;;;;;;2273417;55;21095;-71
2022/08/10 03:29:18;;;;;;;2.15;1.00;;;21.30;37.60;;;;;;2286152;55;21622;-72
2022/08/10 03:31:45;;;;;;;2.85;1.20;;;21.20;37.40;;;;;;2312248;55;21032;-71
2022/08/10 03:34:14;;;;;;;2.78;1.20;;;21.10;37.40;;;;;;2294014;55;21957;-74
2022/08/10 03:36:41;;;;;;;2.75;1.25;;;21.10;37.60;;;;;;2297860;55;20980;-71
2022/08/10 03:39:11;;;;;;;5.07;2.30;;;21.00;37.60;;;;;;2446450;55;20917;-70
2022/08/10 03:41:42;;;;;;;10.38;4.62;;;21.00;37.80;;;;;;2303591;55;21925;-70
2022/08/10 03:44:09;;;;;;;8.15;3.33;;;20.90;38.10;;;;;;2272965;55;20951;-71
2022/08/10 03:46:40;;;;;;;5.70;2.90;;;20.90;38.00;;;;;;2287944;55;20992;-72
2022/08/10 03:49:11;;;;;;;4.95;2.37;;;20.80;38.20;;;;;;2291433;55;20984;-71
2022/08/10 03:51:37;;;;;;;5.12;2.17;;;20.70;38.30;;;;;;2278014;55;20950;-73
2022/08/10 03:54:04;;;;;;;4.12;1.80;;;20.70;38.40;;;;;;2288560;55;21968;-75
2022/08/10 03:56:37;;;;;;;3.75;1.60;;;20.60;38.40;;;;;;2279623;55;21017;-72
2022/08/10 03:59:06;;;;;;;4.28;1.48;;;20.60;38.70;;;;;;2361144;55;20952;-71
2022/08/10 04:01:33;;;;;;;2.92;1.30;;;20.50;38.60;;;;;;2310141;55;21826;-71
2022/08/10 04:03:59;;;;;;;2.87;1.23;;;20.50;38.70;;;;;;2510897;55;21868;-71
2022/08/10 04:06:28;;;;;;;4.25;1.30;;;20.40;38.60;;;;;;2362062;55;21726;-73
2022/08/10 04:08:54;;;;;;;3.15;1.37;;;20.40;38.80;;;;;;2293326;55;21047;-70
2022/08/10 04:11:21;;;;;;;3.40;1.50;;;20.30;38.80;;;;;;2289825;55;20997;-74
2022/08/10 04:13:47;;;;;;;3.65;1.50;;;20.30;38.80;;;;;;2385364;55;21536;-71
2022/08/10 04:16:16;;;;;;;4.37;1.58;;;20.20;39.10;;;;;;2381655;55;21038;-70
2022/08/10 04:18:43;;;;;;;4.30;1.42;;;20.20;39.60;;;;;;2292501;55;20976;-71
2022/08/10 04:21:11;;;;;;;3.97;1.10;;;20.20;39.30;;;;;;2516233;55;21367;-71
2022/08/10 04:23:42;;;;;;;3.92;1.67;;;20.10;39.30;;;;;;2291968;55;21011;-71
2022/08/10 04:26:10;;;;;;;2.90;1.40;;;20.10;39.50;;;;;;2489751;55;20969;-71
2022/08/10 04:28:36;;;;;;;3.15;1.40;;;20.00;39.90;;;;;;2288927;55;20940;-71
2022/08/10 04:31:03;;;;;;;3.53;1.50;;;20.00;39.60;;;;;;2427488;55;20980;-72
2022/08/10 04:33:30;;;;;;;2.83;1.15;;;19.90;39.80;;;;;;2287405;55;21032;-72
2022/08/10 04:35:56;;;;;;;2.53;1.20;;;19.90;39.70;;;;;;2298131;54;21373;-71
2022/08/10 04:38:23;;;;;;;2.72;1.30;;;19.90;39.70;;;;;;2291097;55;20992;-72
2022/08/10 04:40:50;;;;;;;2.75;1.27;;;19.80;39.70;;;;;;2308877;55;20994;-71
2022/08/10 04:43:16;;;;;;;2.65;1.20;;;19.80;39.80;;;;;;2279051;55;21010;-72
2022/08/10 04:45:44;;;;;;;4.15;1.75;;;19.80;39.90;;;;;;2301594;55;20945;-73
2022/08/10 04:48:11;;;;;;;2.80;1.33;;;19.70;40.10;;;;;;2292672;55;21111;-70
2022/08/10 04:50:38;;;;;;;2.78;1.35;;;19.70;40.20;;;;;;2287308;55;20960;-72
2022/08/10 04:53:04;;;;;;;3.87;1.30;;;19.70;40.30;;;;;;2295986;55;20967;-70
2022/08/10 04:55:31;;;;;;;3.72;1.50;;;19.60;40.30;;;;;;2470462;54;21926;-71
2022/08/10 04:57:57;;;;;;;2.60;1.30;;;19.60;40.40;;;;;;2291020;55;20935;-70
2022/08/10 05:00:24;;;;;;;3.22;1.37;;;19.60;40.50;;;;;;2301290;55;20998;-71
2022/08/10 05:02:50;;;;;;;2.90;1.20;;;19.60;41.20;;;;;;2289205;55;21072;-71
2022/08/10 05:05:17;;;;;;;3.85;1.30;;;19.60;40.70;;;;;;2340864;55;22057;-70
2022/08/10 05:07:44;;;;;;;3.05;1.27;;;19.60;41.00;;;;;;2282834;55;21883;-72
2022/08/10 05:10:11;;;;;;;2.90;1.30;;;19.60;41.10;;;;;;2275850;55;20992;-71
2022/08/10 05:12:39;;;;;;;2.58;1.15;;;19.50;40.90;;;;;;2385953;55;20974;-71
2022/08/10 05:15:09;;;;;;;3.37;1.30;;;19.50;41.00;;;;;;2369994;55;21050;-71
2022/08/10 05:17:35;;;;;;;2.47;1.17;;;19.50;41.20;;;;;;2377810;55;20983;-71
2022/08/10 05:20:03;;;;;;;2.22;1.20;;;19.50;41.20;;;;;;2345258;55;21029;-71
2022/08/10 05:22:39;;;;;;;2.55;1.05;;;19.50;41.40;;;;;;2478618;55;21028;-72
2022/08/10 05:25:08;;;;;;;2.80;1.20;;;19.50;41.60;;;;;;2365719;55;20987;-71
2022/08/10 05:27:34;;;;;;;2.62;1.30;;;19.50;41.40;;;;;;2290490;55;20933;-74
2022/08/10 05:30:01;;;;;;;2.78;1.12;;;19.50;41.40;;;;;;2501815;55;21663;-71
2022/08/10 05:32:30;;;;;;;3.67;1.35;;;19.50;41.50;;;;;;2293067;55;21814;-71
2022/08/10 05:34:58;;;;;;;2.33;1.08;;;19.50;41.70;;;;;;2384443;54;20952;-71
2022/08/10 05:37:28;;;;;;;2.95;1.60;;;19.50;41.80;;;;;;2295254;55;20983;-71
2022/08/10 05:39:56;;;;;;;2.80;1.27;;;19.50;42.00;;;;;;2292424;55;21008;-71
2022/08/10 05:42:22;;;;;;;2.92;1.33;;;19.50;42.00;;;;;;2280861;55;21022;-70
2022/08/10 05:44:50;;;;;;;2.67;1.12;;;19.60;42.20;;;;;;2518195;54;21013;-71
2022/08/10 05:47:18;;;;;;;3.15;1.40;;;19.60;42.30;;;;;;2291710;55;21007;-70
2022/08/10 05:49:48;;;;;;;2.67;1.20;;;19.60;42.30;;;;;;2287843;55;20994;-71
2022/08/10 05:52:15;;;;;;;2.50;1.10;;;19.60;42.40;;;;;;2289664;55;21075;-71
2022/08/10 05:54:43;;;;;;;2.40;1.25;;;19.70;42.60;;;;;;2343405;54;21111;-71
2022/08/10 05:57:12;;;;;;;3.20;1.23;;;19.70;42.70;;;;;;2355945;55;21763;-72
2022/08/10 05:59:40;;;;;;;2.62;1.23;;;19.70;43.00;;;;;;2503843;54;20973;-71
2022/08/10 06:02:07;;;;;;;2.72;1.33;;;19.80;42.90;;;;;;2288415;55;20978;-72
2022/08/10 06:04:37;;;;;;;3.75;1.60;;;19.80;42.90;;;;;;2286506;54;20962;-71
2022/08/10 06:07:04;;;;;;;2.75;1.50;;;19.90;43.40;;;;;;2289507;55;21074;-71
2022/08/10 06:09:31;;;;;;;1.95;0.90;;;19.90;43.30;;;;;;2338743;55;21008;-71
2022/08/10 06:11:58;;;;;;;2.25;1.05;;;20.00;43.20;;;;;;2279030;55;20966;-71
2022/08/10 06:17:58;;;;;;;3.25;1.15;;;20.10;43.50;;;;;;2288354;55;21791;-70
2022/08/10 06:20:25;;;;;;;3.28;1.30;;;20.20;43.40;;;;;;2442392;55;21036;-72
2022/08/10 06:22:52;;;;;;;2.90;1.48;;;20.30;43.50;;;;;;2306631;55;21015;-70
2022/08/10 06:25:18;;;;;;;3.08;1.42;;;20.30;43.50;;;;;;2418194;55;21149;-71
2022/08/10 06:28:03;;;;;;;2.95;1.20;;;20.40;43.60;;;;;;2285797;55;21035;-71
2022/08/10 06:30:32;;;;;;;4.60;1.40;;;20.50;43.60;;;;;;2283034;55;20946;-71
2022/08/10 06:32:59;;;;;;;2.75;1.30;;;20.50;43.70;;;;;;2288013;55;20965;-71
2022/08/10 06:35:27;;;;;;;2.40;1.27;;;20.60;43.90;;;;;;2320369;55;20974;-72
2022/08/10 06:37:56;;;;;;;3.28;1.20;;;20.70;44.00;;;;;;2278897;55;21848;-72
2022/08/10 06:40:26;;;;;;;1.90;1.00;;;20.80;44.00;;;;;;2513443;55;22159;-72
2022/08/10 06:42:55;;;;;;;2.45;1.10;;;20.80;44.00;;;;;;2330135;55;21042;-71
2022/08/10 06:45:25;;;;;;;2.47;1.20;;;20.90;44.10;;;;;;2277484;55;21494;-74
2022/08/10 06:49:13;;;;;;;3.50;1.15;;;21.00;44.10;;;;;;2292743;55;21813;-71
2022/08/10 06:51:40;;;;;;;3.72;1.10;;;21.20;44.60;;;;;;2486697;55;20987;-72
2022/08/10 06:54:07;;;;;;;2.33;1.00;;;21.30;44.20;;;;;;2518576;55;21716;-70
2022/08/10 06:56:41;;;;;;;3.20;1.30;;;21.40;44.20;;;;;;2477675;55;21464;-73
2022/08/10 06:59:31;;;;;;;2.90;1.15;;;21.50;44.30;;;;;;2285693;55;21006;-73
2022/08/10 07:01:59;;;;;;;2.72;1.20;;;21.70;44.50;;;;;;2366560;55;20950;-72
2022/08/10 07:04:31;;;;;;;3.42;1.20;;;21.80;44.30;;;;;;2284918;55;21796;-74
2022/08/10 07:06:57;;;;;;;2.80;1.45;;;22.00;44.40;;;;;;2328870;55;21401;-71
2022/08/10 07:09:25;;;;;;;2.78;1.10;;;22.10;44.30;;;;;;2289261;55;21517;-72
2022/08/10 07:11:55;;;;;;;2.58;1.12;;;22.20;44.30;;;;;;2519061;55;20970;-72
2022/08/10 07:14:21;;;;;;;2.78;1.17;;;22.40;44.50;;;;;;2519184;55;21055;-72
2022/08/10 07:16:48;;;;;;;4.53;1.10;;;22.50;44.30;;;;;;2299239;55;21931;-72
2022/08/10 07:19:14;;;;;;;2.80;1.30;;;22.70;44.40;;;;;;2297956;55;20995;-72
2022/08/10 07:21:44;;;;;;;2.90;1.45;;;22.80;44.30;;;;;;2293961;55;21065;-72
2022/08/10 07:24:13;;;;;;;5.30;1.33;;;23.00;44.40;;;;;;2292390;55;20982;-72
2022/08/10 07:26:53;;;;;;;4.40;1.27;;;23.10;44.30;;;;;;2430438;54;21013;-72
2022/08/10 07:29:20;;;;;;;3.15;1.30;;;23.20;44.40;;;;;;2461716;55;20969;-75
2022/08/10 07:31:48;;;;;;;3.30;1.20;;;23.30;44.20;;;;;;2423438;55;21549;-74
2022/08/10 07:34:15;;;;;;;2.20;1.00;;;23.50;44.20;;;;;;2293456;55;20976;-72
2022/08/10 07:36:42;;;;;;;2.83;1.10;;;23.70;44.50;;;;;;2391027;55;21849;-73
2022/08/10 07:39:08;;;;;;;2.12;1.17;;;23.80;44.30;;;;;;2286626;55;20957;-72
2022/08/10 07:41:35;;;;;;;2.28;1.10;;;23.90;44.20;;;;;;2453845;55;21243;-72
2022/08/10 07:44:03;;;;;;;2.97;1.05;;;24.00;44.10;;;;;;2290363;55;21051;-72
2022/08/10 07:46:30;;;;;;;2.72;1.10;;;24.20;44.10;;;;;;2516900;55;20930;-73
2022/08/10 07:49:06;;;;;;;3.25;1.33;;;24.30;44.00;;;;;;2287048;55;20976;-72
2022/08/10 07:51:33;;;;;;;2.65;1.10;;;24.50;44.00;;;;;;2308269;55;21043;-73
2022/08/10 07:54:01;;;;;;;2.47;1.00;;;24.60;43.80;;;;;;2472927;55;21051;-72
2022/08/10 07:56:28;;;;;;;3.00;1.00;;;24.80;43.90;;;;;;2364354;55;20994;-75
2022/08/10 07:59:14;;;;;;;2.37;1.00;;;24.90;43.80;;;;;;2284224;55;20988;-72
2022/08/10 08:01:46;;;;;;;2.53;1.00;;;25.10;43.80;;;;;;2270165;55;21023;-74
2022/08/10 08:04:15;;;;;;;2.17;1.00;;;25.20;43.40;;;;;;2280582;55;21056;-72
2022/08/10 08:06:42;;;;;;;1.87;0.90;;;25.30;43.30;;;;;;2291569;55;21273;-75
2022/08/10 08:09:10;;;;;;;2.85;1.15;;;25.50;43.20;;;;;;2289362;55;21077;-73
2022/08/10 08:11:38;;;;;;;3.92;1.20;;;25.60;43.00;;;;;;2353281;55;20990;-73
2022/08/10 08:14:05;;;;;;;5.87;1.55;;;25.70;42.90;;;;;;2291751;55;21596;-73
2022/08/10 08:16:31;;;;;;;3.03;1.20;;;25.90;42.80;;;;;;2289277;54;21040;-72
2022/08/10 08:18:59;;;;;;;4.57;0.90;;;26.00;42.60;;;;;;2283617;55;21019;-74
2022/08/10 08:21:56;;;;;;;2.37;0.90;;;26.10;42.60;;;;;;2328329;55;21024;-73
2022/08/10 08:24:23;;;;;;;3.47;1.25;;;26.30;42.40;;;;;;2284925;55;20974;-76
2022/08/10 08:26:49;;;;;;;3.72;1.10;;;26.40;41.90;;;;;;2433846;54;20958;-72
2022/08/10 08:29:16;;;;;;;1.80;0.80;;;26.50;41.70;;;;;;2286987;55;20952;-73
2022/08/10 08:31:42;;;;;;;2.33;1.10;;;26.60;41.60;;;;;;2387481;55;21799;-73
2022/08/10 08:34:10;;;;;;;1.80;0.73;;;26.70;41.20;;;;;;2289889;55;20989;-73
2022/08/10 08:36:38;;;;;;;2.72;0.73;;;26.90;40.90;;;;;;2291660;55;20988;-72
2022/08/10 08:39:05;;;;;;;2.10;0.90;;;27.00;40.70;;;;;;2392579;55;20945;-72
2022/08/10 08:42:04;;;;;;;3.58;0.88;;;27.10;40.60;;;;;;2285646;55;21970;-75
2022/08/10 08:51:27;;;;;;;3.40;0.90;;;27.20;39.90;;;;;;2286801;55;21021;-76
2022/08/10 08:54:18;;;;;;;1.90;0.60;;;27.70;39.90;;;;;;2431866;54;20960;-76
2022/08/10 08:57:02;;;;;;;1.40;0.50;;;27.80;39.10;;;;;;2377301;55;21160;-72
2022/08/10 09:00:20;;;;;;;1.98;0.80;;;27.90;38.80;;;;;;2288397;55;21037;-74
2022/08/10 09:11:11;;;;;;;2.47;1.00;;;28.00;38.50;;;;;;2286928;55;21043;-74
2022/08/10 09:20:08;;;;;;;1.10;0.50;;;28.20;38.50;;;;;;2391276;55;20992;-75
2022/08/10 09:25:21;;;;;;;2.33;0.60;;;28.80;37.70;;;;;;2293190;55;20929;-73
2022/08/10 09:27:53;;;;;;;0.60;0.30;;;29.10;36.70;;;;;;2518993;55;21792;-72
2022/08/10 09:30:27;;;;;;;1.52;0.60;;;29.30;36.80;;;;;;2502926;55;20996;-73
2022/08/10 09:33:00;;;;;;;1.08;0.43;;;29.40;36.30;;;;;;2295356;55;20955;-74
2022/08/10 09:35:43;;;;;;;;;;;29.50;36.00;;;;;;2292059;55;21757;-72
2022/08/10 09:45:18;;;;;;;0.68;0.35;;;29.60;35.90;;;;;;2406244;55;20132;-72
2022/08/10 09:48:14;;;;;;;1.35;0.50;;;30.00;35.60;;;;;;2306201;55;21415;-71
2022/08/10 09:51:39;;;;;;;2.00;0.50;;;30.10;34.20;;;;;;2285722;55;21082;-74
2022/08/10 09:54:38;;;;;;;1.30;0.50;;;30.20;33.80;;;;;;2289614;55;20985;-75
2022/08/10 10:00:13;;;;;;;1.55;0.60;;;30.30;33.70;;;;;;2292983;55;21063;-73
2022/08/10 10:02:56;;;;;;;2.72;0.70;;;30.50;34.00;;;;;;2295739;55;21082;-73
2022/08/10 10:06:00;;;;;;;1.40;0.55;;;30.60;33.50;;;;;;2276465;55;21829;-73
2022/08/10 10:15:29;;;;;;;1.50;0.60;;;30.70;32.60;;;;;;2295760;55;21016;-73
2022/08/10 10:18:13;;;;;;;1.40;0.50;;;30.70;31.90;;;;;;2289623;55;20969;-73
2022/08/10 10:23:59;;;;;;;1.60;0.55;;;31.00;31.90;;;;;;2289490;55;20993;-76
2022/08/10 10:26:58;;;;;;;1.15;0.50;;;31.10;31.60;;;;;;2291707;55;20957;-75
2022/08/10 10:29:44;;;;;;;1.10;0.50;;;31.20;31.50;;;;;;2362263;55;21014;-74
2022/08/10 10:34:08;;;;;;;2.50;0.75;;;31.30;31.40;;;;;;2283878;55;21032;-74
2022/08/10 10:36:35;;;;;;;1.50;0.70;;;31.30;31.50;;;;;;2327523;55;21051;-75
2022/08/10 10:39:03;;;;;;;1.12;0.50;;;31.40;31.40;;;;;;2276347;55;21030;-74
2022/08/10 10:41:38;;;;;;;1.23;0.52;;;31.50;31.20;;;;;;2293629;55;21846;-74
2022/08/10 10:44:42;;;;;;;1.05;0.40;;;31.50;30.50;;;;;;2291341;55;21001;-74
2022/08/10 10:47:27;;;;;;;1.25;0.52;;;31.60;30.20;;;;;;2500764;55;21472;-74
2022/08/10 10:52:05;;;;;;;0.77;0.40;;;31.70;30.30;;;;;;2275455;55;21169;-75
2022/08/10 10:59:44;;;;;;;1.25;0.50;;;31.70;30.10;;;;;;2283110;55;21091;-74
2022/08/10 11:06:07;;;;;;;0.80;0.43;;;31.80;30.00;;;;;;2294202;55;21049;-74
2022/08/10 11:08:43;;;;;;;0.95;0.40;;;32.00;29.60;;;;;;2413969;55;20978;-74
2022/08/10 11:11:12;;;;;;;1.42;0.47;;;32.00;30.00;;;;;;2288243;55;20956;-74
2022/08/10 11:14:24;;;;;;;1.33;0.47;;;32.10;29.90;;;;;;2377333;54;20988;-73
2022/08/10 11:17:19;;;;;;;1.60;0.60;;;32.10;29.30;;;;;;2291916;55;20994;-73
2022/08/10 11:20:02;;;;;;;2.08;0.60;;;32.20;29.30;;;;;;2398712;55;21051;-72
2022/08/10 11:23:06;;;;;;;1.10;0.50;;;32.20;29.10;;;;;;2256500;55;20968;-73
2022/08/10 11:25:36;;;;;;;0.80;0.40;;;32.30;28.90;;;;;;2518796;55;20918;-73
2022/08/10 11:28:17;;;;;;;1.07;0.40;;;32.40;29.20;;;;;;2289482;55;20958;-72
2022/08/10 11:31:47;;;;;;;1.05;0.50;;;32.40;29.20;;;;;;2472019;55;21065;-75
2022/08/10 11:34:21;;;;;;;1.65;0.50;;;32.50;28.80;;;;;;2291254;55;20979;-74
2022/08/10 11:37:18;;;;;;;2.00;0.60;;;32.50;28.70;;;;;;2376409;55;21008;-73
2022/08/10 11:40:34;;;;;;;1.40;0.60;;;32.60;28.60;;;;;;2282954;55;21024;-75
2022/08/10 11:43:34;;;;;;;1.12;0.50;;;32.70;28.80;;;;;;2384104;55;21051;-73
2022/08/10 11:46:22;;;;;;;1.02;0.50;;;32.80;28.10;;;;;;2397903;55;20990;-73
2022/08/10 11:49:25;;;;;;;1.10;0.50;;;32.80;28.10;;;;;;2290517;55;20957;-73
2022/08/10 11:51:56;;;;;;;0.82;0.45;;;32.80;27.90;;;;;;2291654;55;21131;-73
2022/08/10 11:54:48;;;;;;;2.35;0.80;;;32.90;28.50;;;;;;2289132;55;20998;-75
2022/08/10 11:57:16;;;;;;;3.20;0.55;;;32.90;27.50;;;;;;2292935;55;21717;-74
2022/08/10 11:59:57;;;;;;;1.58;0.52;;;33.00;27.90;;;;;;2286447;54;21002;-73
2022/08/10 12:02:26;;;;;;;;;;;33.00;27.90;;;;;;2300538;55;20988;-73
2022/08/10 12:05:38;;;;;;;0.90;0.35;;;33.00;28.00;;;;;;2303780;55;20126;-73
2022/08/10 12:08:05;;;;;;;1.20;0.52;;;33.10;27.90;;;;;;2286626;55;21005;-73
2022/08/10 12:10:31;;;;;;;1.33;0.60;;;33.20;28.10;;;;;;2415472;55;20970;-74
2022/08/10 12:13:25;;;;;;;0.70;0.40;;;33.20;27.60;;;;;;2267661;55;21053;-73
2022/08/10 12:16:06;;;;;;;;;;;33.20;27.30;;;;;;2296304;55;20945;-73
2022/08/10 12:18:44;;;;;;;0.93;0.50;;;33.30;27.80;;;;;;2293521;55;20056;-74
2022/08/10 12:21:17;;;;;;;2.53;0.62;;;33.40;27.30;;;;;;2284160;55;21771;-73
2022/08/10 12:24:08;;;;;;;1.20;0.47;;;33.40;26.90;;;;;;2282254;55;21016;-75
2022/08/10 12:26:38;;;;;;;4.22;0.60;;;33.50;26.80;;;;;;2273485;55;20958;-74
2022/08/10 12:29:28;;;;;;;1.58;0.60;;;33.50;27.20;;;;;;2290049;55;20978;-73
2022/08/10 12:32:04;;;;;;;1.20;0.43;;;33.50;26.60;;;;;;2288776;55;20938;-74
2022/08/10 12:35:24;;;;;;;1.33;0.60;;;33.60;26.60;;;;;;2287776;55;21037;-73
2022/08/10 12:38:38;;;;;;;1.08;0.45;;;33.70;26.60;;;;;;2425894;55;21514;-73
2022/08/10 12:41:20;;;;;;;0.95;0.40;;;33.70;26.50;;;;;;2292583;55;20975;-73
2022/08/10 12:43:51;;;;;;;1.50;0.50;;;33.80;26.10;;;;;;2283275;55;21097;-74
2022/08/10 12:46:38;;;;;;;1.60;0.57;;;33.80;26.40;;;;;;2289304;55;20953;-75
2022/08/10 12:49:26;;;;;;;1.20;0.60;;;33.90;26.50;;;;;;2287716;55;21399;-73
2022/08/10 12:54:45;;;;;;;1.40;0.50;;;33.90;25.80;;;;;;2291913;55;21023;-74
2022/08/10 12:57:16;;;;;;;1.20;0.50;;;34.00;26.20;;;;;;2293591;55;21794;-74
2022/08/10 12:59:49;;;;;;;1.83;0.50;;;34.00;26.10;;;;;;2348132;55;21833;-73
2022/08/10 13:02:30;;;;;;;2.30;0.60;;;34.10;26.00;;;;;;2289487;55;20994;-73
2022/08/10 13:04:59;;;;;;;0.77;0.40;;;34.10;25.20;;;;;;2290252;54;21089;-73
2022/08/10 13:07:27;;;;;;;1.50;0.50;;;34.10;25.80;;;;;;2287442;55;21032;-73
2022/08/10 13:10:01;;;;;;;1.00;0.43;;;34.10;25.60;;;;;;2284876;55;21905;-73
2022/08/10 13:12:29;;;;;;;1.40;0.50;;;34.20;25.60;;;;;;2286889;55;20940;-72
2022/08/10 13:14:59;;;;;;;1.62;0.70;;;34.20;25.60;;;;;;2276412;55;20947;-74
2022/08/10 13:17:31;;;;;;;1.15;0.50;;;34.30;25.60;;;;;;2288160;55;21072;-73
2022/08/10 13:19:59;;;;;;;1.08;0.57;;;34.30;25.30;;;;;;2289661;55;21041;-74
2022/08/10 13:22:32;;;;;;;1.58;0.60;;;34.30;25.30;;;;;;2273275;55;21499;-74
2022/08/10 13:25:00;;;;;;;1.55;0.50;;;34.30;25.00;;;;;;2291953;55;21887;-73
2022/08/10 13:28:09;;;;;;;1.60;0.60;;;34.40;24.80;;;;;;2393453;55;20977;-75
2022/08/10 13:30:38;;;;;;;1.37;0.62;;;34.40;24.40;;;;;;2291366;55;20973;-74
2022/08/10 13:33:09;;;;;;;1.17;0.40;;;34.40;24.90;;;;;;2288768;55;21014;-73
2022/08/10 13:35:35;;;;;;;2.03;0.50;;;34.40;24.60;;;;;;2267366;55;21547;-73
2022/08/10 13:38:06;;;;;;;1.50;0.50;;;34.40;24.50;;;;;;2299157;55;20982;-72
2022/08/10 13:40:33;;;;;;;1.42;0.55;;;34.40;24.40;;;;;;2291442;55;21004;-75
2022/08/10 13:43:00;;;;;;;1.20;0.60;;;34.40;24.80;;;;;;2278820;55;21011;-72
2022/08/10 13:45:28;;;;;;;1.30;0.60;;;34.40;24.80;;;;;;2415435;54;20993;-73
2022/08/10 13:48:16;;;;;;;1.15;0.50;;;34.50;24.80;;;;;;2277623;55;20933;-73
2022/08/10 13:50:45;;;;;;;0.70;0.32;;;34.50;24.80;;;;;;2289791;55;21016;-72
2022/08/10 13:53:15;;;;;;;1.37;0.40;;;34.60;24.90;;;;;;2284543;55;21050;-73
2022/08/10 13:55:43;;;;;;;1.92;0.62;;;34.60;24.70;;;;;;2283350;55;20978;-72
2022/08/10 13:58:09;;;;;;;0.60;0.32;;;34.70;24.40;;;;;;2292575;55;20984;-72
2022/08/10 14:00:37;;;;;;;1.70;0.60;;;34.70;24.30;;;;;;2288409;55;20990;-72
2022/08/10 14:03:11;;;;;;;0.93;0.40;;;34.70;24.40;;;;;;2292842;55;21052;-75
2022/08/10 14:05:43;;;;;;;2.33;0.90;;;34.80;24.30;;;;;;2270247;55;20964;-72
2022/08/10 14:08:12;;;;;;;;;;;34.80;24.30;;;;;;2285302;55;20949;-72
2022/08/10 14:10:39;;;;;;;1.55;0.40;;;34.90;24.50;;;;;;2292232;55;20127;-73
2022/08/10 14:13:06;;;;;;;0.55;0.30;;;34.90;24.30;;;;;;2284006;55;21106;-73
2022/08/10 14:15:33;;;;;;;2.05;0.60;;;35.00;23.90;;;;;;2279305;55;26199;-73
2022/08/10 14:17:59;;;;;;;0.98;0.40;;;35.00;23.90;;;;;;2314132;55;21055;-74
2022/08/10 14:20:31;;;;;;;1.48;0.50;;;35.00;23.80;;;;;;2281611;55;21057;-73
2022/08/10 14:23:13;;;;;;;1.10;0.52;;;35.10;23.60;;;;;;2292728;55;21056;-74
2022/08/10 14:25:49;;;;;;;;;;;35.10;23.30;;;;;;2291553;55;20960;-73
2022/08/10 14:28:18;;;;;;;1.40;0.43;;;35.20;23.90;;;;;;2377362;54;20077;-72
2022/08/10 14:30:53;;;;;;;1.20;0.35;;;35.20;23.40;;;;;;2497661;55;21789;-73
2022/08/10 14:33:20;;;;;;;1.55;0.40;;;35.20;23.30;;;;;;2285748;55;20996;-75
2022/08/10 14:35:46;;;;;;;0.52;0.30;;;35.30;23.60;;;;;;2398511;54;20940;-74
2022/08/10 14:38:17;;;;;;;1.40;0.52;;;35.30;23.40;;;;;;2284690;55;20997;-74
2022/08/10 14:40:50;;;;;;;0.80;0.40;;;35.30;23.10;;;;;;2347959;55;21084;-73